East Buffalo, Pennsylvania
Current Conditions -  °F | °C
As of 8:53 AM on Thursday 30 Oct 2014 (Local Time) from KSEG Reporting Station
Haze Haze  
Wind Chill: 42°   Ceiling: 4000
Heat Index: 42°   Visibility: 6mi
Dew Point: 40°   Wind: 0mph
Humidity: 92%   Direction: NA
Pressure: 30.06"   Gusts: NA
Location:  40.9885°N, 76.9787°W
Report Text: KSEG 301253Z AUTO 00000KT 6SM BR BKN040 OVC070 06/04 A3006 RMK AO2 SLP181 T00560044
Loading
Personal Weather Stations






























Interactive Weather Map
Tropical Storm Tracking
New forecast layout! Learn more

10-Day Weather Forecast

Advertisements
Track Severe Weather on mobile